POGODA: Poland

Lotnisko: Gdansk-Rebiechowo

METAR KOD: EPGD


METAR: EPGD 230800Z 09009KT 7000 OVC004 03/03 Q1021


BLOK
Pogoda METAR
230800Z
Dzien: 23, Godzina: 08:00 UTC.
09009KT
Wiatr z kierunku 090, o predkosci 17 km/h
7000
Widzialnosc pozioma 7000 m.
OVC004
calkowite zachmurzenie o podstawie: 120 metrow
03/03
Temperatura: powietrze 3°C, punkt rosy 3°C . Wilgotnosc wzgledna 100 %
Q1021
Cisnienie: 1021 hPa

Pogoda na innym lotnisku

Pogoda Gdansk-Rebiechowo WEATHER Poland  
Pogoda Katowice WEATHER Poland  
Pogoda Krakow WEATHER Poland  
Pogoda Poznan WEATHER Poland  
Pogoda Rzeszow-Jasionka WEATHER Poland  
Pogoda Szczecin WEATHER Poland  
Pogoda Warszawa-Okecie WEATHER Poland  
Pogoda Wroclaw Ii WEATHER Poland  

Pogoda w inny kraju

Strona startowa

(C) by GREGOR 2007
Ogłoszenia Towarzyskie